sensor_id;sensor_type;location;lat;lon;timestamp;P1;P2;P0
56688;PMS5003;42565;53.342;-1.534;2022-08-11T00:01:43;4;4;
56688;PMS5003;42565;53.342;-1.534;2022-08-11T00:04:13;3;3;
56688;PMS5003;42565;53.342;-1.534;2022-08-11T00:06:42;4;3;
56688;PMS5003;42565;53.342;-1.534;2022-08-11T00:09:15;4;4;
56688;PMS5003;42565;53.342;-1.534;2022-08-11T00:11:44;5;5;
56688;PMS5003;42565;53.342;-1.534;2022-08-11T00:14:14;4;4;
56688;PMS5003;42565;53.342;-1.534;2022-08-11T00:16:51;3;3;
56688;PMS5003;42565;53.342;-1.534;2022-08-11T00:19:20;4;4;
56688;PMS5003;42565;53.342;-1.534;2022-08-11T00:21:49;3;2;
56688;PMS5003;42565;53.342;-1.534;2022-08-11T00:24:17;4;3;
56688;PMS5003;42565;53.342;-1.534;2022-08-11T00:26:46;4;4;
56688;PMS5003;42565;53.342;-1.534;2022-08-11T00:29:14;4;4;
56688;PMS5003;42565;53.342;-1.534;2022-08-11T00:31:43;3;3;
56688;PMS5003;42565;53.342;-1.534;2022-08-11T00:34:14;2;2;
56688;PMS5003;42565;53.342;-1.534;2022-08-11T00:37:29;4;4;
56688;PMS5003;42565;53.342;-1.534;2022-08-11T00:39:57;4;3;
56688;PMS5003;42565;53.342;-1.534;2022-08-11T00:42:28;3;3;
56688;PMS5003;42565;53.342;-1.534;2022-08-11T00:45:09;6;6;
56688;PMS5003;42565;53.342;-1.534;2022-08-11T00:47:52;5;5;
56688;PMS5003;42565;53.342;-1.534;2022-08-11T00:50:34;5;4;
56688;PMS5003;42565;53.342;-1.534;2022-08-11T00:53:15;5;5;
56688;PMS5003;42565;53.342;-1.534;2022-08-11T00:56:08;4;4;
56688;PMS5003;42565;53.342;-1.534;2022-08-11T00:58:58;5;5;
56688;PMS5003;42565;53.342;-1.534;2022-08-11T00:59:47;5;5;
56688;PMS5003;42565;53.342;-1.534;2022-08-11T01:02:38;2;2;
56688;PMS5003;42565;53.342;-1.534;2022-08-11T01:05:21;4;2;
56688;PMS5003;42565;53.342;-1.534;2022-08-11T01:10:22;4;3;
56688;PMS5003;42565;53.342;-1.534;2022-08-11T01:13:13;3;3;
56688;PMS5003;42565;53.342;-1.534;2022-08-11T01:16:01;4;4;
56688;PMS5003;42565;53.342;-1.534;2022-08-11T01:18:56;4;3;
56688;PMS5003;42565;53.342;-1.534;2022-08-11T01:22:57;2;2;
56688;PMS5003;42565;53.342;-1.534;2022-08-11T01:26:08;3;3;
56688;PMS5003;42565;53.342;-1.534;2022-08-11T01:29:21;3;3;
56688;PMS5003;42565;53.342;-1.534;2022-08-11T01:32:25;4;4;
56688;PMS5003;42565;53.342;-1.534;2022-08-11T01:37:57;4;3;
56688;PMS5003;42565;53.342;-1.534;2022-08-11T01:40:38;4;3;
56688;PMS5003;42565;53.342;-1.534;2022-08-11T01:43:24;5;4;
56688;PMS5003;42565;53.342;-1.534;2022-08-11T01:46:25;5;4;
56688;PMS5003;42565;53.342;-1.534;2022-08-11T01:49:00;4;4;
56688;PMS5003;42565;53.342;-1.534;2022-08-11T01:51:37;4;4;
56688;PMS5003;42565;53.342;-1.534;2022-08-11T01:54:21;4;4;
56688;PMS5003;42565;53.342;-1.534;2022-08-11T01:56:57;5;5;
56688;PMS5003;42565;53.342;-1.534;2022-08-11T01:59:38;3;3;
56688;PMS5003;42565;53.342;-1.534;2022-08-11T02:02:17;4;4;
56688;PMS5003;42565;53.342;-1.534;2022-08-11T02:04:55;4;4;
56688;PMS5003;42565;53.342;-1.534;2022-08-11T02:07:30;5;4;
56688;PMS5003;42565;53.342;-1.534;2022-08-11T02:10:10;3;2;
56688;PMS5003;42565;53.342;-1.534;2022-08-11T02:12:49;3;3;
56688;PMS5003;42565;53.342;-1.534;2022-08-11T02:15:24;4;4;
56688;PMS5003;42565;53.342;-1.534;2022-08-11T02:17:58;2;2;
56688;PMS5003;42565;53.342;-1.534;2022-08-11T02:20:35;4;4;
56688;PMS5003;42565;53.342;-1.534;2022-08-11T02:23:12;4;4;
56688;PMS5003;42565;53.342;-1.534;2022-08-11T02:25:52;3;3;
56688;PMS5003;42565;53.342;-1.534;2022-08-11T02:28:26;3;3;
56688;PMS5003;42565;53.342;-1.534;2022-08-11T02:31:02;3;3;
56688;PMS5003;42565;53.342;-1.534;2022-08-11T02:33:37;3;3;
56688;PMS5003;42565;53.342;-1.534;2022-08-11T02:37:06;4;4;
56688;PMS5003;42565;53.342;-1.534;2022-08-11T02:39:47;3;3;
56688;PMS5003;42565;53.342;-1.534;2022-08-11T02:42:37;4;4;
56688;PMS5003;42565;53.342;-1.534;2022-08-11T02:45:18;5;5;
56688;PMS5003;42565;53.342;-1.534;2022-08-11T02:48:02;4;4;
56688;PMS5003;42565;53.342;-1.534;2022-08-11T02:50:36;5;5;
56688;PMS5003;42565;53.342;-1.534;2022-08-11T02:53:10;4;4;
56688;PMS5003;42565;53.342;-1.534;2022-08-11T02:55:47;4;4;
56688;PMS5003;42565;53.342;-1.534;2022-08-11T02:58:26;3;3;
56688;PMS5003;42565;53.342;-1.534;2022-08-11T03:01:05;4;4;
56688;PMS5003;42565;53.342;-1.534;2022-08-11T03:03:44;2;2;
56688;PMS5003;42565;53.342;-1.534;2022-08-11T03:06:22;5;5;
56688;PMS5003;42565;53.342;-1.534;2022-08-11T03:08:59;5;5;
56688;PMS5003;42565;53.342;-1.534;2022-08-11T03:11:40;5;4;
56688;PMS5003;42565;53.342;-1.534;2022-08-11T03:14:17;4;4;
56688;PMS5003;42565;53.342;-1.534;2022-08-11T03:16:51;4;4;
56688;PMS5003;42565;53.342;-1.534;2022-08-11T03:19:26;4;4;
56688;PMS5003;42565;53.342;-1.534;2022-08-11T03:22:02;3;3;
56688;PMS5003;42565;53.342;-1.534;2022-08-11T03:24:40;4;3;
56688;PMS5003;42565;53.342;-1.534;2022-08-11T03:27:23;5;5;
56688;PMS5003;42565;53.342;-1.534;2022-08-11T03:30:02;4;4;
56688;PMS5003;42565;53.342;-1.534;2022-08-11T03:32:35;4;4;
56688;PMS5003;42565;53.342;-1.534;2022-08-11T03:35:08;5;4;
56688;PMS5003;42565;53.342;-1.534;2022-08-11T03:38:18;4;4;
56688;PMS5003;42565;53.342;-1.534;2022-08-11T03:41:05;5;5;
56688;PMS5003;42565;53.342;-1.534;2022-08-11T03:43:48;2;2;
56688;PMS5003;42565;53.342;-1.534;2022-08-11T03:46:26;4;4;
56688;PMS5003;42565;53.342;-1.534;2022-08-11T03:49:06;4;4;
56688;PMS5003;42565;53.342;-1.534;2022-08-11T03:51:46;5;5;
56688;PMS5003;42565;53.342;-1.534;2022-08-11T03:54:24;5;4;
56688;PMS5003;42565;53.342;-1.534;2022-08-11T03:57:07;4;4;
56688;PMS5003;42565;53.342;-1.534;2022-08-11T04:01:00;4;4;
56688;PMS5003;42565;53.342;-1.534;2022-08-11T04:03:57;5;4;
56688;PMS5003;42565;53.342;-1.534;2022-08-11T04:06:52;6;5;
56688;PMS5003;42565;53.342;-1.534;2022-08-11T04:09:49;3;3;
56688;PMS5003;42565;53.342;-1.534;2022-08-11T04:12:37;3;3;
56688;PMS5003;42565;53.342;-1.534;2022-08-11T04:16:06;4;4;
56688;PMS5003;42565;53.342;-1.534;2022-08-11T04:20:58;5;5;
56688;PMS5003;42565;53.342;-1.534;2022-08-11T04:23:44;4;4;
56688;PMS5003;42565;53.342;-1.534;2022-08-11T04:26:32;4;4;
56688;PMS5003;42565;53.342;-1.534;2022-08-11T04:29:24;6;5;
56688;PMS5003;42565;53.342;-1.534;2022-08-11T04:32:08;4;4;
56688;PMS5003;42565;53.342;-1.534;2022-08-11T04:34:58;4;4;
56688;PMS5003;42565;53.342;-1.534;2022-08-11T04:38:08;3;3;
56688;PMS5003;42565;53.342;-1.534;2022-08-11T04:41:07;4;4;
56688;PMS5003;42565;53.342;-1.534;2022-08-11T04:45:00;4;4;
56688;PMS5003;42565;53.342;-1.534;2022-08-11T04:47:56;6;5;
56688;PMS5003;42565;53.342;-1.534;2022-08-11T04:53:11;4;4;
56688;PMS5003;42565;53.342;-1.534;2022-08-11T04:56:00;6;6;
56688;PMS5003;42565;53.342;-1.534;2022-08-11T04:58:36;5;5;
56688;PMS5003;42565;53.342;-1.534;2022-08-11T05:01:19;5;5;
56688;PMS5003;42565;53.342;-1.534;2022-08-11T05:04:08;5;5;
56688;PMS5003;42565;53.342;-1.534;2022-08-11T05:06:53;5;4;
56688;PMS5003;42565;53.342;-1.534;2022-08-11T05:09:43;5;5;
56688;PMS5003;42565;53.342;-1.534;2022-08-11T05:12:40;5;5;
56688;PMS5003;42565;53.342;-1.534;2022-08-11T05:15:11;3;3;
56688;PMS5003;42565;53.342;-1.534;2022-08-11T05:17:40;5;5;
56688;PMS5003;42565;53.342;-1.534;2022-08-11T05:20:11;5;5;
56688;PMS5003;42565;53.342;-1.534;2022-08-11T05:22:41;4;4;
56688;PMS5003;42565;53.342;-1.534;2022-08-11T05:25:15;4;4;
56688;PMS5003;42565;53.342;-1.534;2022-08-11T05:27:49;4;4;
56688;PMS5003;42565;53.342;-1.534;2022-08-11T05:30:24;4;4;
56688;PMS5003;42565;53.342;-1.534;2022-08-11T05:32:55;5;5;
56688;PMS5003;42565;53.342;-1.534;2022-08-11T05:35:26;6;5;
56688;PMS5003;42565;53.342;-1.534;2022-08-11T05:38:38;5;5;
56688;PMS5003;42565;53.342;-1.534;2022-08-11T05:41:05;5;5;
56688;PMS5003;42565;53.342;-1.534;2022-08-11T05:43:39;6;6;
56688;PMS5003;42565;53.342;-1.534;2022-08-11T05:46:09;8;6;
56688;PMS5003;42565;53.342;-1.534;2022-08-11T05:48:36;5;5;
56688;PMS5003;42565;53.342;-1.534;2022-08-11T05:51:07;6;5;
56688;PMS5003;42565;53.342;-1.534;2022-08-11T05:53:41;5;5;
56688;PMS5003;42565;53.342;-1.534;2022-08-11T05:56:11;5;4;
56688;PMS5003;42565;53.342;-1.534;2022-08-11T05:58:39;6;6;
56688;PMS5003;42565;53.342;-1.534;2022-08-11T06:01:08;3;3;
56688;PMS5003;42565;53.342;-1.534;2022-08-11T06:03:37;5;5;
56688;PMS5003;42565;53.342;-1.534;2022-08-11T06:06:08;4;4;
56688;PMS5003;42565;53.342;-1.534;2022-08-11T06:08:36;7;7;
56688;PMS5003;42565;53.342;-1.534;2022-08-11T06:11:04;7;6;
56688;PMS5003;42565;53.342;-1.534;2022-08-11T06:13:32;5;5;
56688;PMS5003;42565;53.342;-1.534;2022-08-11T06:15:59;6;6;
56688;PMS5003;42565;53.342;-1.534;2022-08-11T06:18:27;5;5;
56688;PMS5003;42565;53.342;-1.534;2022-08-11T06:20:56;7;6;
56688;PMS5003;42565;53.342;-1.534;2022-08-11T06:23:24;5;5;
56688;PMS5003;42565;53.342;-1.534;2022-08-11T06:25:57;6;5;
56688;PMS5003;42565;53.342;-1.534;2022-08-11T06:28:28;8;7;
56688;PMS5003;42565;53.342;-1.534;2022-08-11T06:30:58;6;6;
56688;PMS5003;42565;53.342;-1.534;2022-08-11T06:33:29;5;4;
56688;PMS5003;42565;53.342;-1.534;2022-08-11T06:36:02;6;6;
56688;PMS5003;42565;53.342;-1.534;2022-08-11T06:38:38;7;7;
56688;PMS5003;42565;53.342;-1.534;2022-08-11T06:41:19;6;6;
56688;PMS5003;42565;53.342;-1.534;2022-08-11T06:43:53;8;8;
56688;PMS5003;42565;53.342;-1.534;2022-08-11T06:46:29;7;6;
56688;PMS5003;42565;53.342;-1.534;2022-08-11T06:48:59;8;8;
56688;PMS5003;42565;53.342;-1.534;2022-08-11T06:51:27;6;6;
56688;PMS5003;42565;53.342;-1.534;2022-08-11T06:53:55;8;8;
56688;PMS5003;42565;53.342;-1.534;2022-08-11T06:56:27;8;8;
56688;PMS5003;42565;53.342;-1.534;2022-08-11T06:58:55;10;10;
56688;PMS5003;42565;53.342;-1.534;2022-08-11T07:01:30;8;7;
56688;PMS5003;42565;53.342;-1.534;2022-08-11T07:04:06;11;9;
56688;PMS5003;42565;53.342;-1.534;2022-08-11T07:06:54;11;10;
56688;PMS5003;42565;53.342;-1.534;2022-08-11T07:09:37;9;9;
56688;PMS5003;42565;53.342;-1.534;2022-08-11T07:12:28;10;10;
56688;PMS5003;42565;53.342;-1.534;2022-08-11T07:15:05;8;8;
56688;PMS5003;42565;53.342;-1.534;2022-08-11T07:17:38;9;9;
56688;PMS5003;42565;53.342;-1.534;2022-08-11T07:20:10;10;9;
56688;PMS5003;42565;53.342;-1.534;2022-08-11T07:22:39;9;9;
56688;PMS5003;42565;53.342;-1.534;2022-08-11T07:25:10;9;9;
56688;PMS5003;42565;53.342;-1.534;2022-08-11T07:27:41;8;8;
56688;PMS5003;42565;53.342;-1.534;2022-08-11T07:30:11;8;8;
56688;PMS5003;42565;53.342;-1.534;2022-08-11T07:32:40;7;7;
56688;PMS5003;42565;53.342;-1.534;2022-08-11T07:35:14;8;8;
56688;PMS5003;42565;53.342;-1.534;2022-08-11T07:37:46;6;6;
56688;PMS5003;42565;53.342;-1.534;2022-08-11T07:40:19;8;7;
56688;PMS5003;42565;53.342;-1.534;2022-08-11T07:42:48;7;7;
56688;PMS5003;42565;53.342;-1.534;2022-08-11T07:45:17;6;6;
56688;PMS5003;42565;53.342;-1.534;2022-08-11T07:47:44;8;8;
56688;PMS5003;42565;53.342;-1.534;2022-08-11T07:50:13;8;7;
56688;PMS5003;42565;53.342;-1.534;2022-08-11T07:52:40;6;6;
56688;PMS5003;42565;53.342;-1.534;2022-08-11T07:55:11;9;8;
56688;PMS5003;42565;53.342;-1.534;2022-08-11T07:57:42;7;7;
56688;PMS5003;42565;53.342;-1.534;2022-08-11T08:00:11;6;6;
56688;PMS5003;42565;53.342;-1.534;2022-08-11T08:02:39;7;7;
56688;PMS5003;42565;53.342;-1.534;2022-08-11T08:05:08;6;6;
56688;PMS5003;42565;53.342;-1.534;2022-08-11T08:07:36;7;7;
